Time;durP1;ratioP1;P1;durP2;ratioP2;P2;SDS_P1;SDS_P2;PMS_P1;PMS_P2;Temp;Humidity;BMP_temperature;BMP_pressure;BME280_temperature;BME280_humidity;BME280_pressure;Samples;Min_cycle;Max_cycle;Signal;HPM_P1;HPM_P2
2022/01/21 00:01:43;;;;;;;22.08;7.20;;;1.30;99.90;;;0.26;100.00;98968.41;5028140;28;20479;-69
2022/01/21 00:04:11;;;;;;;25.98;11.02;;;1.30;99.90;;;0.34;100.00;98964.28;5025836;28;20201;-68
2022/01/21 00:06:40;;;;;;;12.23;3.30;;;1.30;99.90;;;0.26;100.00;98968.41;5010710;28;20505;-68
2022/01/21 00:09:07;;;;;;;16.25;2.40;;;1.40;99.90;;;0.31;100.00;98957.44;5026313;28;20508;-67
2022/01/21 00:11:36;;;;;;;9.85;1.52;;;1.40;99.90;;;0.42;100.00;98962.75;5028244;28;20049;-68
2022/01/21 00:14:03;;;;;;;11.07;1.92;;;1.40;99.90;;;0.44;100.00;98968.78;5025695;28;20462;-68
2022/01/21 00:16:30;;;;;;;11.90;2.08;;;1.40;99.90;;;0.42;100.00;98972.97;5028090;28;20073;-68
2022/01/21 00:19:06;;;;;;;10.48;2.03;;;1.40;99.90;;;0.17;100.00;98966.50;5026277;28;20053;-68
2022/01/21 00:32:33;;;;;;;14.52;2.28;;;1.30;99.90;;;0.32;100.00;98959.16;5027523;28;20127;-68
2022/01/21 00:35:01;;;;;;;12.55;1.90;;;1.30;99.90;;;0.15;100.00;98963.06;5027059;28;20049;-68
2022/01/21 00:37:27;;;;;;;13.10;1.83;;;1.30;99.90;;;0.23;100.00;98960.66;5026655;28;20084;-68
2022/01/21 00:39:58;;;;;;;11.40;2.03;;;1.20;99.90;;;0.21;100.00;98963.19;5026664;28;20458;-68
2022/01/21 00:45:00;;;;;;;10.73;2.05;;;1.30;99.90;;;0.03;100.00;98956.00;5031012;28;20318;-68
2022/01/21 00:47:27;;;;;;;11.25;2.35;;;1.30;99.90;;;0.14;100.00;98953.69;5029649;28;20049;-69
2022/01/21 00:49:55;;;;;;;10.07;2.00;;;1.30;99.90;;;0.20;100.00;98957.19;5027367;28;20092;-68
2022/01/21 00:52:23;;;;;;;14.48;2.55;;;1.30;99.90;;;0.22;100.00;98962.34;5026270;28;20208;-68
2022/01/21 00:54:50;;;;;;;11.70;2.08;;;1.30;99.90;;;0.16;100.00;98970.75;5026411;28;20136;-69
2022/01/21 00:57:17;;;;;;;6.72;1.45;;;1.20;99.90;;;0.18;100.00;98978.44;5025841;28;20057;-69
2022/01/21 00:59:43;;;;;;;11.63;1.70;;;1.30;99.90;;;0.14;100.00;98979.22;5027013;28;20069;-68
2022/01/21 01:02:10;;;;;;;12.65;2.05;;;1.20;99.90;;;0.20;100.00;98974.22;5024831;28;20141;-68
2022/01/21 01:04:37;;;;;;;10.35;1.70;;;1.30;99.90;;;0.13;100.00;98972.38;5028593;28;20057;-69
2022/01/21 01:07:08;;;;;;;14.98;2.15;;;1.30;99.90;;;0.28;100.00;98972.69;5024851;28;20679;-68
2022/01/21 01:09:35;;;;;;;11.38;2.00;;;1.30;99.90;;;0.28;100.00;98977.81;5026847;28;20087;-69
2022/01/21 01:20:20;;;;;;;7.78;1.80;;;1.30;99.90;;;0.34;100.00;98988.16;5026229;28;20136;-68
2022/01/21 01:23:00;;;;;;;8.48;1.73;;;1.30;99.90;;;0.37;100.00;98985.66;5026055;28;20083;-69
2022/01/21 01:28:12;;;;;;;13.25;1.65;;;1.40;99.90;;;0.37;100.00;98985.66;5024540;28;20542;-69
2022/01/21 01:30:39;;;;;;;4.82;1.20;;;1.40;99.90;;;0.16;100.00;98975.88;5028217;28;20465;-68
2022/01/21 01:33:09;;;;;;;5.90;1.40;;;1.30;99.90;;;0.06;100.00;98984.13;5025316;28;20597;-68
2022/01/21 01:35:38;;;;;;;14.15;1.77;;;1.20;99.90;;;0.09;100.00;98983.34;5026016;28;20049;-68
2022/01/21 01:38:42;;;;;;;12.02;2.03;;;1.10;99.90;;;-0.04;100.00;98982.22;5023336;28;20124;-69
2022/01/21 01:41:13;;;;;;;15.77;2.15;;;1.00;99.90;;;-0.14;100.00;98993.03;5028508;28;20121;-69
2022/01/21 01:52:17;;;;;;;18.48;1.42;;;0.70;99.90;;;-0.38;100.00;99001.88;5022706;28;20390;-68
2022/01/21 01:54:53;;;;;;;10.43;1.85;;;0.80;99.90;;;-0.42;100.00;99007.72;5025287;28;20709;-69
2022/01/21 01:57:21;;;;;;;13.20;2.17;;;0.70;99.90;;;-0.38;100.00;99004.41;5024974;28;20053;-68
2022/01/21 01:59:48;;;;;;;10.18;1.73;;;0.70;99.90;;;-0.37;100.00;99002.72;5024318;28;20217;-68
2022/01/21 02:02:19;;;;;;;12.85;1.67;;;0.70;99.90;;;-0.38;100.00;98998.47;5025496;28;20057;-68
2022/01/21 02:04:49;;;;;;;16.27;2.22;;;0.70;99.90;;;-0.31;100.00;99002.88;5025546;28;20488;-68
2022/01/21 02:07:17;;;;;;;14.70;2.40;;;0.80;99.90;;;-0.33;100.00;98999.41;5025249;28;20053;-68
2022/01/21 02:09:44;;;;;;;17.05;2.25;;;0.80;99.90;;;-0.23;100.00;98996.25;5023993;28;20072;-69
2022/01/21 02:12:11;;;;;;;10.40;1.30;;;0.80;99.90;;;-0.08;100.00;98999.16;5025290;28;20164;-68
2022/01/21 02:14:47;;;;;;;15.02;2.03;;;0.90;99.90;;;-0.02;100.00;98988.22;5027252;28;20137;-68
2022/01/21 02:22:47;;;;;;;8.27;1.52;;;1.00;99.90;;;0.11;100.00;98982.53;5024509;28;20049;-67
2022/01/21 02:25:18;;;;;;;14.38;2.03;;;1.00;99.90;;;0.01;100.00;98992.53;5031346;28;20081;-69
2022/01/21 02:27:48;;;;;;;12.98;1.83;;;1.00;99.90;;;0.04;100.00;98984.94;5034533;28;20056;-68
2022/01/21 02:30:18;;;;;;;9.52;1.63;;;1.00;99.90;;;0.05;100.00;98994.34;5028947;28;20143;-68
2022/01/21 02:32:55;;;;;;;9.73;1.45;;;1.10;99.90;;;0.05;100.00;99002.00;5031133;28;20582;-68
2022/01/21 02:35:24;;;;;;;10.82;2.05;;;1.10;99.90;;;0.01;100.00;99006.16;5029779;28;20336;-68
2022/01/21 02:37:52;;;;;;;8.00;1.58;;;1.10;99.90;;;0.06;100.00;98998.59;5029033;28;20045;-68
2022/01/21 02:40:19;;;;;;;6.43;1.83;;;1.10;99.90;;;0.14;100.00;99002.19;5027796;28;20050;-68
2022/01/21 02:42:47;;;;;;;9.57;1.83;;;1.10;99.90;;;0.03;100.00;99001.97;5030650;28;20396;-69
2022/01/21 02:45:15;;;;;;;12.90;2.00;;;1.10;99.90;;;-0.01;100.00;99000.16;5029271;28;20624;-68
2022/01/21 02:47:44;;;;;;;14.60;2.40;;;1.20;99.90;;;-0.04;100.00;99002.66;5029269;28;20081;-68
2022/01/21 02:50:12;;;;;;;19.30;1.83;;;1.10;99.90;;;-0.11;100.00;99006.75;5026050;28;20785;-68
2022/01/21 02:52:53;;;;;;;17.52;2.30;;;1.10;99.90;;;-0.12;100.00;99007.56;5028670;28;20127;-68
2022/01/21 02:55:21;;;;;;;10.95;2.13;;;1.00;99.90;;;-0.12;100.00;99012.66;5028193;28;20077;-68
2022/01/21 02:57:48;;;;;;;18.45;2.72;;;1.00;99.90;;;-0.23;100.00;99019.22;5028357;28;20517;-68
2022/01/21 03:00:15;;;;;;;11.60;1.75;;;1.00;99.90;;;-0.26;100.00;99017.44;5029677;28;20468;-69
2022/01/21 03:02:42;;;;;;;11.65;2.53;;;0.90;99.90;;;-0.26;100.00;99022.56;5030978;28;20081;-68
2022/01/21 03:05:14;;;;;;;12.55;1.92;;;0.90;99.90;;;-0.28;100.00;99023.34;5028509;28;20068;-68
2022/01/21 03:07:41;;;;;;;9.70;1.90;;;0.90;99.90;;;-0.30;100.00;99023.31;5042711;28;20050;-68
2022/01/21 03:10:09;;;;;;;12.23;1.88;;;0.90;99.90;;;-0.29;100.00;99019.09;5026905;28;20132;-69
2022/01/21 03:12:36;;;;;;;8.45;1.63;;;0.80;99.90;;;-0.29;100.00;99017.38;5027589;28;20069;-69
2022/01/21 03:15:05;;;;;;;10.07;2.20;;;0.80;99.90;;;-0.43;100.00;99006.00;5031047;28;20092;-68
2022/01/21 03:17:32;;;;;;;12.25;1.90;;;0.80;99.90;;;-0.36;100.00;98999.34;5029310;28;20136;-68
2022/01/21 03:19:59;;;;;;;15.35;2.22;;;0.70;99.90;;;-0.49;100.00;99001.59;5027377;28;20088;-68
2022/01/21 03:22:31;;;;;;;10.00;1.60;;;0.70;99.90;;;-0.50;100.00;98993.91;5026601;28;20072;-68
2022/01/21 03:24:58;;;;;;;13.02;2.00;;;0.60;99.90;;;-0.61;100.00;99001.31;5029167;28;20386;-69
2022/01/21 03:27:25;;;;;;;13.57;1.83;;;0.50;99.90;;;-0.50;100.00;98994.78;5028989;28;20485;-68
2022/01/21 03:29:51;;;;;;;11.90;1.73;;;0.50;99.90;;;-0.64;100.00;99012.31;5028573;28;20566;-68
2022/01/21 03:32:18;;;;;;;20.42;3.80;;;0.40;99.90;;;-0.74;100.00;99014.56;5028027;28;20073;-68
2022/01/21 03:34:45;;;;;;;19.40;2.50;;;0.30;99.90;;;-0.87;100.00;99031.22;5029908;28;20056;-69
2022/01/21 03:37:13;;;;;;;15.77;2.60;;;0.30;99.90;;;-0.85;100.00;99027.88;5027648;28;20172;-68
2022/01/21 03:39:40;;;;;;;9.00;1.52;;;0.30;99.90;;;-0.82;100.00;99024.59;5027413;28;20076;-68
2022/01/21 03:42:07;;;;;;;13.23;2.15;;;0.30;99.90;;;-0.86;100.00;99023.63;5029373;28;20136;-68
2022/01/21 03:44:34;;;;;;;9.60;1.75;;;0.20;99.90;;;-1.06;100.00;99025.63;5029321;28;20091;-68
2022/01/21 03:47:01;;;;;;;7.28;1.70;;;0.20;99.90;;;-0.96;100.00;99026.75;5030021;28;20071;-68
2022/01/21 03:49:35;;;;;;;15.52;2.33;;;0.10;99.90;;;-1.06;100.00;99025.63;5027578;28;20077;-68
2022/01/21 03:52:05;;;;;;;9.95;1.40;;;0.00;99.90;;;-1.15;100.00;99037.28;5029275;28;20053;-69
2022/01/21 03:54:34;;;;;;;9.13;1.48;;;-0.10;99.90;;;-1.29;100.00;99030.13;5027154;28;20100;-68
2022/01/21 03:57:04;;;;;;;8.25;1.33;;;-0.20;99.90;;;-1.31;100.00;99044.50;5027951;28;20140;-68
2022/01/21 03:59:31;;;;;;;13.70;1.77;;;-0.30;99.90;;;-1.36;100.00;99033.31;5027048;28;20049;-68
2022/01/21 04:01:59;;;;;;;9.77;1.55;;;-0.40;99.90;;;-1.43;100.00;99049.25;5027565;28;20084;-68
2022/01/21 04:04:27;;;;;;;15.57;2.03;;;-0.40;99.90;;;-1.46;100.00;99046.59;5026676;28;20045;-68
2022/01/21 04:06:54;;;;;;;9.23;1.70;;;-0.50;99.90;;;-1.44;100.00;99051.75;5028756;28;20084;-68
2022/01/21 04:09:20;;;;;;;10.00;1.50;;;-0.40;99.90;;;-1.56;100.00;99063.28;5025729;28;20050;-68
2022/01/21 04:11:47;;;;;;;13.20;1.65;;;-0.50;99.90;;;-1.59;100.00;99062.34;5030394;28;20040;-69
2022/01/21 04:14:15;;;;;;;10.70;2.38;;;;;;;-1.70;100.00;99062.88;5028528;28;20048;-69
2022/01/21 04:16:43;;;;;;;8.10;1.65;;;;;;;-1.65;100.00;99064.72;5027245;28;20053;-69
2022/01/21 04:19:10;;;;;;;8.35;1.83;;;-0.50;99.90;;;-1.67;100.00;99059.56;5025328;28;20148;-68
2022/01/21 04:21:37;;;;;;;10.75;1.40;;;-0.40;99.90;;;-1.63;100.00;99061.38;5027455;28;20371;-68
2022/01/21 04:24:04;;;;;;;11.07;2.05;;;-0.50;99.90;;;-1.78;100.00;99060.91;5027471;28;20127;-68
2022/01/21 04:26:31;;;;;;;14.32;3.20;;;-0.60;99.90;;;-1.83;100.00;99054.84;5027355;28;20056;-68
2022/01/21 04:28:58;;;;;;;13.70;3.00;;;-0.60;99.90;;;-1.72;100.00;99061.97;5026914;28;20073;-68
2022/01/21 04:31:25;;;;;;;15.40;3.60;;;-0.60;99.90;;;-1.69;100.00;99064.63;5027785;28;20083;-68
2022/01/21 04:33:52;;;;;;;15.02;3.80;;;-0.60;99.90;;;-1.95;100.00;99066.38;5027682;28;20046;-68
2022/01/21 04:36:19;;;;;;;15.80;4.10;;;-0.60;99.90;;;-2.05;100.00;99068.56;5027428;28;20136;-69
2022/01/21 04:38:46;;;;;;;19.42;4.75;;;-0.60;99.90;;;-2.27;100.00;99059.41;5026414;28;20052;-68
2022/01/21 04:49:11;;;;;;;19.77;7.60;;;-0.90;99.90;;;-2.01;100.00;99065.31;5025741;28;20053;-69
2022/01/21 04:51:48;;;;;;;14.70;4.45;;;-1.00;99.90;;;-2.07;100.00;99071.09;5028055;28;20601;-68
2022/01/21 04:54:15;;;;;;;15.45;4.35;;;-1.00;99.90;;;-2.06;100.00;99077.88;5025565;28;20493;-68
2022/01/21 04:56:42;;;;;;;17.55;4.97;;;-0.90;99.90;;;-2.00;100.00;99074.69;5026991;28;20141;-68
2022/01/21 04:59:08;;;;;;;19.73;5.15;;;-0.90;99.90;;;-1.98;100.00;99081.56;5025833;28;20041;-68
2022/01/21 05:01:35;;;;;;;12.95;3.90;;;-0.90;99.90;;;-1.87;100.00;99084.44;5027096;28;20037;-69
2022/01/21 05:04:03;;;;;;;22.05;5.63;;;-0.80;99.90;;;-1.87;100.00;99079.34;5024470;28;20132;-68
2022/01/21 05:06:29;;;;;;;17.52;4.93;;;-0.80;99.90;;;-1.92;100.00;99081.72;5027819;28;20153;-68
2022/01/21 05:08:56;;;;;;;14.02;3.40;;;-0.80;99.90;;;-1.80;100.00;99080.38;5026075;28;20081;-68
2022/01/21 05:11:23;;;;;;;14.85;4.00;;;-0.70;99.90;;;-1.64;100.00;99090.22;5027538;28;20166;-67
2022/01/21 05:14:12;;;;;;;8.93;2.97;;;-0.60;99.90;;;-1.62;100.00;99085.16;5028081;28;20037;-68
2022/01/21 05:16:39;;;;;;;13.00;3.40;;;-0.50;99.90;;;-1.56;100.00;99082.81;5026137;28;20103;-67
2022/01/21 05:19:14;;;;;;;9.70;3.20;;;-0.50;99.90;;;-1.64;100.00;99091.88;5027849;28;20136;-68
2022/01/21 05:21:49;;;;;;;12.13;4.57;;;-0.50;99.90;;;-1.77;100.00;99088.13;5029045;28;20057;-68
2022/01/21 05:24:19;;;;;;;26.90;5.60;;;-0.50;99.90;;;-1.90;100.00;99087.72;5026337;28;20140;-68
2022/01/21 05:26:55;;;;;;;16.00;4.65;;;-0.50;99.90;;;-1.75;100.00;99089.03;5028063;28;20188;-69
2022/01/21 05:29:25;;;;;;;13.73;4.35;;;-0.50;99.90;;;-1.81;100.00;99092.25;5032616;28;20140;-68
2022/01/21 05:31:53;;;;;;;17.33;4.82;;;-0.50;99.90;;;-1.64;100.00;99094.44;5030490;28;20489;-68
2022/01/21 05:34:20;;;;;;;19.15;4.13;;;-0.50;99.90;;;-1.46;100.00;99092.44;5026377;28;20056;-67
2022/01/21 05:36:47;;;;;;;11.65;4.30;;;-0.40;99.90;;;-1.39;100.00;99096.03;5026193;28;20158;-68
2022/01/21 05:39:16;;;;;;;11.25;4.07;;;-0.40;99.90;;;-1.19;100.00;99096.59;5024138;28;20219;-68
2022/01/21 05:41:47;;;;;;;12.35;3.50;;;-0.30;99.90;;;-1.16;100.00;99104.38;5026347;28;20421;-68
2022/01/21 05:47:09;;;;;;;17.83;5.35;;;-0.20;99.90;;;-1.23;100.00;99112.63;5025820;28;20077;-68
2022/01/21 05:49:37;;;;;;;18.77;4.88;;;-0.20;99.90;;;-1.21;100.00;99109.28;5025947;28;20128;-68
2022/01/21 05:52:09;;;;;;;23.25;5.63;;;-0.20;99.90;;;-1.39;100.00;99117.28;5028288;28;20133;-68
2022/01/21 05:54:37;;;;;;;17.33;4.65;;;-0.20;99.90;;;-1.19;100.00;99110.19;5027667;28;20042;-68
2022/01/21 05:57:06;;;;;;;15.10;4.30;;;-0.10;99.90;;;-1.11;100.00;99107.91;5026892;28;20073;-68
2022/01/21 05:59:34;;;;;;;15.35;3.58;;;-0.10;99.90;;;-1.09;100.00;99113.91;5025279;28;20462;-68
2022/01/21 06:02:02;;;;;;;15.38;3.50;;;-0.10;99.90;;;-1.06;100.00;99108.88;5027673;28;20136;-68
2022/01/21 06:04:29;;;;;;;15.30;4.30;;;0.00;99.90;;;-1.20;100.00;99108.50;5030390;28;20047;-68
2022/01/21 06:06:56;;;;;;;17.77;4.50;;;0.00;99.90;;;-1.13;100.00;99109.53;5030612;28;20132;-69
2022/01/21 06:09:23;;;;;;;20.13;5.70;;;0.00;99.90;;;-1.13;100.00;99114.63;5029557;28;20287;-69
2022/01/21 06:11:51;;;;;;;20.08;6.68;;;0.00;99.90;;;-1.16;100.00;99110.31;5030457;28;20096;-68
2022/01/21 06:14:18;;;;;;;15.23;6.38;;;0.00;99.90;;;-1.17;100.00;99107.72;5030264;28;20057;-68
2022/01/21 06:16:45;;;;;;;17.13;6.00;;;0.00;99.90;;;-0.93;100.00;99117.75;5028999;28;20208;-69
2022/01/21 06:19:12;;;;;;;16.88;5.60;;;0.10;99.90;;;-0.83;100.00;99111.22;5030144;28;20046;-68
2022/01/21 06:21:39;;;;;;;10.77;4.88;;;0.10;99.90;;;-0.87;100.00;99107.69;5013514;28;20078;-69
2022/01/21 06:24:06;;;;;;;19.77;5.13;;;0.20;99.90;;;-0.81;100.00;99112.13;5027673;28;20446;-68
2022/01/21 06:26:35;;;;;;;11.32;3.67;;;0.20;99.90;;;-0.76;100.00;99125.84;5029850;28;20045;-68
2022/01/21 06:29:04;;;;;;;14.90;3.50;;;0.20;99.90;;;-0.81;100.00;99123.19;5027774;28;20053;-68
2022/01/21 06:31:31;;;;;;;11.10;2.83;;;0.30;99.90;;;-0.98;100.00;99132.91;5027572;28;20144;-69
2022/01/21 06:33:58;;;;;;;11.25;2.25;;;0.30;99.90;;;-1.18;100.00;99131.47;5027997;28;20497;-68
2022/01/21 06:36:26;;;;;;;12.55;2.10;;;0.30;99.90;;;-1.27;100.00;99122.72;5026935;28;20081;-68
2022/01/21 06:38:53;;;;;;;15.82;3.33;;;0.30;99.90;;;-1.23;100.00;99133.00;5025641;28;20141;-68
2022/01/21 06:41:20;;;;;;;12.05;1.95;;;0.30;99.90;;;-1.09;100.00;99129.19;5026090;28;20148;-69
2022/01/21 06:43:47;;;;;;;14.55;2.90;;;0.30;99.90;;;-1.13;100.00;99128.22;5028069;28;20156;-68
2022/01/21 06:46:14;;;;;;;11.02;3.20;;;0.20;99.90;;;-1.18;100.00;99139.97;5031510;28;20365;-68
2022/01/21 06:48:42;;;;;;;16.25;2.38;;;0.30;99.90;;;-1.01;100.00;99134.50;5025867;28;20445;-69
2022/01/21 06:51:08;;;;;;;12.25;3.58;;;0.20;99.90;;;-0.87;100.00;99136.63;5029622;28;20128;-68
2022/01/21 06:53:35;;;;;;;14.18;3.70;;;0.10;99.90;;;-1.09;100.00;99135.16;5027578;28;20129;-68
2022/01/21 06:56:03;;;;;;;15.82;3.00;;;0.20;99.90;;;-1.19;100.00;99139.91;5029725;28;20476;-69
2022/01/21 06:58:30;;;;;;;17.65;2.85;;;0.20;99.90;;;-1.16;100.00;99143.44;5027955;28;20458;-68
2022/01/21 07:00:57;;;;;;;13.73;2.53;;;0.30;99.90;;;-0.94;100.00;99142.34;5029363;28;20072;-69
2022/01/21 07:03:24;;;;;;;27.05;8.52;;;0.30;99.90;;;-0.98;100.00;99150.75;5041253;28;20064;-69
2022/01/21 07:05:51;;;;;;;21.80;5.55;;;0.30;99.90;;;-0.79;100.00;99156.38;5028401;28;20447;-68
2022/01/21 07:08:19;;;;;;;14.45;2.17;;;0.30;99.90;;;-0.87;100.00;99151.03;5026228;28;20449;-68
2022/01/21 07:10:46;;;;;;;9.98;2.75;;;0.30;99.90;;;-0.85;100.00;99160.44;5028592;28;20077;-68
2022/01/21 07:13:13;;;;;;;18.02;3.20;;;0.30;99.90;;;-0.78;100.00;99160.63;5024988;28;20060;-69
2022/01/21 07:15:40;;;;;;;13.10;2.45;;;0.30;99.90;;;-0.83;100.00;99170.69;5027605;28;20220;-68
2022/01/21 07:18:07;;;;;;;18.70;3.90;;;0.40;99.90;;;-1.01;100.00;99171.03;5026135;28;20045;-68
2022/01/21 07:20:34;;;;;;;24.95;6.63;;;0.40;99.90;;;-1.19;100.00;99176.44;5024809;28;20152;-68
2022/01/21 07:23:01;;;;;;;16.45;4.38;;;0.40;99.90;;;-1.19;100.00;99173.03;5027664;28;20140;-68
2022/01/21 07:25:28;;;;;;;13.55;3.85;;;0.40;99.90;;;-1.01;100.00;99188.03;5026134;28;20132;-68
2022/01/21 07:27:55;;;;;;;15.32;4.50;;;0.30;99.90;;;-0.81;100.00;99180.94;5027270;28;20493;-68
2022/01/21 07:30:22;;;;;;;16.48;3.97;;;0.30;99.90;;;-0.64;100.00;99174.63;5026829;28;20389;-67
2022/01/21 07:32:49;;;;;;;18.30;4.20;;;0.40;99.90;;;-0.75;100.00;99164.16;5027447;28;20200;-68
2022/01/21 07:35:17;;;;;;;19.00;3.78;;;0.40;99.90;;;-0.78;100.00;99174.25;5026121;28;20143;-68
2022/01/21 07:38:04;;;;;;;14.10;3.67;;;0.40;99.90;;;-0.80;100.00;99170.78;5027377;28;20490;-69
2022/01/21 07:40:31;;;;;;;13.52;3.53;;;0.30;99.90;;;-0.68;100.00;99172.84;5024507;28;20172;-67
2022/01/21 07:42:58;;;;;;;12.98;3.42;;;0.40;99.90;;;-0.50;100.00;99172.44;5026021;28;20076;-69
2022/01/21 07:45:25;;;;;;;10.07;3.17;;;0.40;99.90;;;-0.49;100.00;99167.41;5029357;28;20084;-68
2022/01/21 07:47:52;;;;;;;9.90;2.80;;;0.50;99.90;;;-0.57;100.00;99179.09;5028209;28;20077;-68
2022/01/21 07:50:19;;;;;;;14.40;3.67;;;0.50;99.90;;;-0.48;100.00;99173.34;5025917;28;20081;-68
2022/01/21 07:52:46;;;;;;;15.02;3.65;;;0.50;99.90;;;-0.68;100.00;99183.88;5025360;28;20147;-68
2022/01/21 07:55:13;;;;;;;16.85;2.95;;;0.60;99.90;;;-0.78;100.00;99178.47;5026564;28;20469;-68
2022/01/21 07:57:44;;;;;;;17.85;3.13;;;0.60;99.90;;;-0.67;100.00;99179.66;5027094;28;20071;-68
2022/01/21 08:00:12;;;;;;;15.90;3.25;;;0.70;99.90;;;-0.65;100.00;99186.50;5023767;28;20168;-68
2022/01/21 08:02:39;;;;;;;12.05;2.80;;;0.70;99.90;;;-0.74;100.00;99178.59;5024590;28;20045;-68
2022/01/21 08:05:07;;;;;;;13.43;2.40;;;0.70;99.90;;;-0.61;100.00;99186.63;5026260;28;20046;-68
2022/01/21 08:07:35;;;;;;;19.73;4.63;;;0.70;99.90;;;-0.48;100.00;99184.44;5027102;28;20099;-68
2022/01/21 08:10:04;;;;;;;16.50;4.88;;;0.70;99.90;;;-0.70;100.00;99177.03;5025166;28;20461;-69
2022/01/21 08:12:31;;;;;;;12.95;3.63;;;0.70;99.90;;;-0.54;100.00;99185.97;5025508;28;20533;-68
2022/01/21 08:14:58;;;;;;;17.90;2.88;;;0.70;99.90;;;-0.68;100.00;99186.44;5023829;28;20545;-68
2022/01/21 08:17:29;;;;;;;15.10;3.45;;;0.80;99.90;;;-0.69;100.00;99192.34;5026575;28;20124;-68
2022/01/21 08:19:59;;;;;;;17.40;3.85;;;0.80;99.90;;;-0.71;100.00;99191.47;5028444;28;20511;-68
2022/01/21 08:22:27;;;;;;;15.80;3.20;;;0.90;99.90;;;-0.60;100.00;99194.28;5025076;28;20053;-68
2022/01/21 08:24:54;;;;;;;18.02;3.00;;;0.90;99.90;;;-0.43;100.00;99198.19;5028599;28;20058;-68
2022/01/21 08:27:22;;;;;;;16.67;5.45;;;0.90;99.90;;;-0.29;100.00;99192.59;5034015;28;20115;-69
2022/01/21 08:29:50;;;;;;;15.30;3.25;;;0.80;99.90;;;-0.42;100.00;99192.25;5038085;28;20060;-69
2022/01/21 08:32:19;;;;;;;21.25;3.25;;;0.90;99.90;;;-0.47;100.00;99195.50;5032118;28;20433;-68
2022/01/21 08:34:47;;;;;;;16.45;3.20;;;1.00;99.90;;;-0.42;100.00;99193.94;5027465;28;20132;-68
2022/01/21 08:37:14;;;;;;;18.67;3.30;;;1.00;99.90;;;-0.47;100.00;99187.84;5027293;28;20145;-68
2022/01/21 08:39:43;;;;;;;11.60;4.07;;;1.00;99.90;;;-0.31;100.00;99184.88;5026731;28;20128;-68
2022/01/21 08:42:10;;;;;;;14.30;3.70;;;1.10;99.90;;;-0.41;100.00;99190.59;5026354;28;20128;-69
2022/01/21 08:44:38;;;;;;;15.38;5.40;;;1.10;99.90;;;-0.41;100.00;99195.69;5025317;28;20073;-69
2022/01/21 08:47:06;;;;;;;19.45;6.57;;;1.20;99.90;;;-0.24;100.00;99191.88;5026408;28;20132;-69
2022/01/21 08:49:39;;;;;;;22.02;7.25;;;1.20;99.90;;;-0.08;100.00;99197.38;5022940;28;20053;-69
2022/01/21 08:52:06;;;;;;;24.70;5.93;;;1.20;99.90;;;0.15;100.00;99209.03;5029580;28;20085;-68
2022/01/21 08:54:33;;;;;;;24.55;5.05;;;1.20;99.90;;;0.15;100.00;99215.84;5026016;28;20061;-69
2022/01/21 08:57:00;;;;;;;19.50;4.57;;;1.30;99.90;;;0.27;100.00;99200.81;5027001;28;20045;-68
2022/01/21 08:59:27;;;;;;;21.88;3.90;;;1.40;99.90;;;-0.16;100.00;99199.75;5027164;28;20137;-68
2022/01/21 09:01:54;;;;;;;15.27;4.07;;;1.50;99.90;;;-0.07;100.00;99199.09;5021265;28;20140;-67
2022/01/21 09:04:22;;;;;;;29.20;9.13;;;1.40;99.90;;;0.14;100.00;99203.91;5023962;28;20053;-68
2022/01/21 09:06:50;;;;;;;15.52;5.65;;;1.40;99.90;;;0.18;100.00;99205.69;5027455;28;20143;-68
2022/01/21 09:09:17;;;;;;;50.20;18.67;;;1.50;99.90;;;0.26;100.00;99211.00;5025132;28;20482;-68
2022/01/21 09:11:45;;;;;;;32.53;10.57;;;1.50;99.90;;;0.15;100.00;99209.03;5025070;28;20051;-68
2022/01/21 09:14:12;;;;;;;22.98;5.65;;;1.50;99.90;;;0.36;100.00;99211.25;5024332;28;20048;-68
2022/01/21 09:16:42;;;;;;;22.73;5.88;;;1.60;99.90;;;0.25;100.00;99204.16;5024228;28;20077;-68
2022/01/21 09:19:10;;;;;;;32.17;8.45;;;1.70;99.90;;;0.23;100.00;99200.69;5025797;28;20045;-68
2022/01/21 09:21:42;;;;;;;14.95;4.45;;;1.70;99.90;;;0.20;100.00;99207.44;5025934;28;21620;-68
2022/01/21 09:24:09;;;;;;;14.63;3.70;;;1.60;99.90;;;0.02;100.00;99203.59;5025599;28;20564;-68
2022/01/21 09:26:36;;;;;;;16.27;3.45;;;1.70;99.90;;;0.32;100.00;99206.03;5024694;28;20141;-68
2022/01/21 09:29:05;;;;;;;66.50;24.08;;;1.70;99.90;;;0.24;100.00;99213.50;5023232;28;20136;-69
2022/01/21 09:31:33;;;;;;;25.27;5.60;;;1.80;99.90;;;0.31;100.00;99217.94;5022252;28;20497;-68
2022/01/21 09:34:21;;;;;;;50.85;17.35;;;1.90;99.90;;;0.29;100.00;99217.03;5021411;28;20389;-69
2022/01/21 09:36:47;;;;;;;97.72;31.23;;;1.90;99.90;;;0.36;100.00;99218.91;5030278;28;20041;-68
2022/01/21 09:39:15;;;;;;;42.33;13.55;;;2.00;99.90;;;0.58;100.00;99219.44;5028862;28;20148;-68
2022/01/21 09:41:43;;;;;;;123.88;42.35;;;2.00;99.90;;;0.44;100.00;99221.66;5030142;28;20185;-69
2022/01/21 09:44:18;;;;;;;26.67;5.32;;;2.10;99.90;;;0.70;100.00;99229.09;5026351;28;20501;-69
2022/01/21 09:46:50;;;;;;;59.08;20.30;;;2.10;99.90;;;0.79;100.00;99214.81;5030332;28;20171;-68
2022/01/21 09:51:55;;;;;;;71.55;26.70;;;2.20;99.90;;;0.53;100.00;99221.88;5029927;28;20055;-69
2022/01/21 09:54:24;;;;;;;41.42;10.93;;;2.10;99.90;;;0.43;100.00;99209.72;5028536;28;20119;-68
2022/01/21 09:56:56;;;;;;;24.77;6.28;;;2.10;99.90;;;0.32;100.00;99206.91;5029197;28;20073;-69
2022/01/21 09:59:29;;;;;;;71.25;22.80;;;2.00;99.90;;;0.55;100.00;99211.72;5027197;28;20053;-68
2022/01/21 10:02:04;;;;;;;48.15;14.20;;;2.00;99.90;;;0.82;100.00;99212.34;5028555;28;20417;-68
2022/01/21 10:04:39;;;;;;;52.45;16.35;;;2.10;99.90;;;0.82;100.00;99207.25;5027996;28;20581;-69
2022/01/21 10:07:14;;;;;;;77.13;27.42;;;2.30;99.90;;;0.92;100.00;99210.00;5027214;28;20080;-68
2022/01/21 10:09:44;;;;;;;40.47;12.77;;;2.40;99.90;;;1.03;100.00;99218.75;5028923;28;20120;-69
2022/01/21 10:12:11;;;;;;;33.85;10.68;;;2.50;99.90;;;1.13;100.00;99218.13;5027177;28;20072;-68
2022/01/21 10:14:38;;;;;;;26.88;8.27;;;2.70;99.90;;;1.65;100.00;99216.63;5026910;28;20410;-68
2022/01/21 10:17:11;;;;;;;18.80;4.43;;;2.80;99.90;;;1.90;100.00;99206.84;5026242;28;20120;-68
2022/01/21 10:19:48;;;;;;;19.77;3.67;;;3.00;99.90;;;2.07;100.00;99205.44;5027725;28;20099;-69
2022/01/21 10:22:23;;;;;;;44.20;12.88;;;3.20;99.90;;;1.37;100.00;99204.09;5027815;28;20599;-68
2022/01/21 10:25:00;;;;;;;14.93;3.60;;;3.10;99.90;;;1.14;100.00;99209.63;5026650;28;20077;-68
2022/01/21 10:27:36;;;;;;;16.30;4.70;;;3.10;99.90;;;1.70;100.00;99201.34;5028753;28;20053;-68
2022/01/21 10:30:25;;;;;;;15.48;4.78;;;2.90;99.90;;;2.01;100.00;99192.53;5028670;28;20087;-69
2022/01/21 10:32:52;;;;;;;11.48;3.03;;;3.00;99.90;;;1.63;100.00;99196.97;5030137;28;20084;-69
2022/01/21 10:35:39;;;;;;;16.88;3.25;;;3.10;99.90;;;2.12;100.00;99200.38;5030859;28;20631;-68
2022/01/21 10:38:28;;;;;;;21.70;3.88;;;3.30;99.90;;;1.80;100.00;99199.81;5030354;28;20053;-68
2022/01/21 10:41:06;;;;;;;36.53;12.00;;;3.40;99.90;;;1.79;100.00;99209.19;5030076;28;20136;-69
2022/01/21 10:43:34;;;;;;;26.58;8.27;;;3.40;99.90;;;1.66;100.00;99200.41;5028192;28;20528;-68
2022/01/21 10:46:03;;;;;;;41.30;14.50;;;3.30;99.90;;;1.52;100.00;99206.97;5029313;28;20461;-69
2022/01/21 10:48:55;;;;;;;95.85;28.23;;;3.30;99.90;;;1.69;100.00;99204.75;5028684;28;20057;-68
2022/01/21 10:51:26;;;;;;;29.83;7.22;;;3.30;99.90;;;1.47;100.00;99200.91;5026755;28;20046;-69
2022/01/21 10:53:56;;;;;;;20.75;5.82;;;3.30;99.90;;;1.90;100.00;99191.50;5027562;28;20125;-69
2022/01/21 10:56:27;;;;;;;21.17;5.57;;;3.30;99.90;;;2.11;100.00;99193.56;5027902;28;20506;-69
2022/01/21 10:58:56;;;;;;;21.65;4.15;;;3.40;99.90;;;2.34;100.00;99195.63;5030259;28;20139;-68
2022/01/21 11:01:29;;;;;;;25.90;7.32;;;3.50;99.90;;;2.26;100.00;99196.38;5011264;28;20124;-68
2022/01/21 11:04:11;;;;;;;12.75;2.85;;;3.60;99.90;;;2.82;100.00;99195.53;5025522;28;20107;-68
2022/01/21 11:06:54;;;;;;;17.55;3.83;;;3.70;99.90;;;2.93;100.00;99193.13;5027694;28;20591;-69
2022/01/21 11:09:26;;;;;;;17.33;5.97;;;3.90;99.90;;;2.32;100.00;99195.59;5026414;28;20108;-68
2022/01/21 11:12:19;;;;;;;18.58;3.22;;;4.00;99.90;;;2.36;100.00;99199.09;5028132;28;20049;-69
2022/01/21 11:15:04;;;;;;;17.65;5.80;;;3.90;99.90;;;2.21;100.00;99194.56;5027325;28;20165;-68
2022/01/21 11:17:31;;;;;;;14.43;3.42;;;3.90;99.90;;;2.68;100.00;99190.19;5025496;28;20113;-69